createdAt,value
2023-05-05T00:02:12.629Z,99336.97
2023-05-05T00:04:39.264Z,99337.81
2023-05-05T00:07:05.895Z,99341.41
2023-05-05T00:09:32.334Z,99337.41
2023-05-05T00:11:58.773Z,99336.97
2023-05-05T00:14:25.323Z,99332.06
2023-05-05T00:16:52.060Z,99320.19
2023-05-05T00:19:18.671Z,99319.22
2023-05-05T00:21:48.030Z,99310.09
2023-05-05T00:24:16.811Z,99312.09
2023-05-05T00:26:43.246Z,99310.00
2023-05-05T00:29:09.634Z,99309.25
2023-05-05T00:31:36.173Z,99310.75
2023-05-05T00:34:02.566Z,99308.09
2023-05-05T00:36:29.263Z,99304.91
2023-05-05T00:38:55.692Z,99298.75
2023-05-05T00:41:23.334Z,99298.53
2023-05-05T00:43:51.568Z,99295.75
2023-05-05T00:46:20.131Z,99299.59
2023-05-05T00:48:47.611Z,99293.44
2023-05-05T00:51:14.103Z,99294.41
2023-05-05T00:53:43.270Z,99290.25
2023-05-05T00:56:12.229Z,99293.88
2023-05-05T00:58:38.961Z,99296.53
2023-05-05T01:01:05.378Z,99292.56
2023-05-05T01:03:32.179Z,99289.75
2023-05-05T01:05:58.994Z,99287.94
2023-05-05T01:08:26.485Z,99291.50
2023-05-05T01:10:53.356Z,99283.78
2023-05-05T01:13:19.830Z,99283.03
2023-05-05T01:15:46.417Z,99280.38
2023-05-05T01:18:12.901Z,99283.34
2023-05-05T01:20:42.869Z,99289.28
2023-05-05T01:23:09.488Z,99291.28
2023-05-05T01:25:37.067Z,99296.75
2023-05-05T01:28:03.514Z,99296.41
2023-05-05T01:30:29.964Z,99293.97
2023-05-05T01:32:56.489Z,99295.25
2023-05-05T01:35:22.930Z,99287.28
2023-05-05T01:37:51.513Z,99283.91
2023-05-05T01:40:18.147Z,99284.25
2023-05-05T01:42:44.863Z,99275.88
2023-05-05T01:45:11.296Z,99284.25
2023-05-05T01:47:37.797Z,99281.22
2023-05-05T01:50:04.206Z,99280.59
2023-05-05T01:52:30.751Z,99283.88
2023-05-05T01:54:57.277Z,99281.22
2023-05-05T01:57:24.137Z,99272.31
2023-05-05T01:59:50.529Z,99278.47
2023-05-05T02:02:20.102Z,99279.44
2023-05-05T02:04:46.726Z,99274.41
2023-05-05T02:07:13.390Z,99270.00
2023-05-05T02:09:40.022Z,99271.22
2023-05-05T02:12:06.716Z,99264.63
2023-05-05T02:14:33.257Z,99257.53
2023-05-05T02:16:59.920Z,99253.84
2023-05-05T02:19:26.522Z,99260.94
2023-05-05T02:21:53.026Z,99260.59
2023-05-05T02:24:20.041Z,99254.56
2023-05-05T02:26:46.626Z,99259.94
2023-05-05T02:29:13.065Z,99247.13
2023-05-05T02:31:39.598Z,99259.19
2023-05-05T02:34:06.045Z,99261.66
2023-05-05T02:36:32.843Z,99257.03
2023-05-05T02:38:59.285Z,99262.53
2023-05-05T02:41:25.806Z,99262.13
2023-05-05T02:43:52.270Z,99261.19
2023-05-05T02:46:18.759Z,99261.94
2023-05-05T02:48:46.525Z,99266.41
2023-05-05T02:51:12.996Z,99262.81
2023-05-05T02:53:39.462Z,99262.50
2023-05-05T02:56:05.898Z,99259.59
2023-05-05T02:58:32.318Z,99264.31
2023-05-05T03:00:59.371Z,99260.25
2023-05-05T03:03:26.103Z,99264.41
2023-05-05T03:05:52.616Z,99267.91
2023-05-05T03:08:19.083Z,99272.94
2023-05-05T03:10:45.565Z,99261.50
2023-05-05T03:13:12.313Z,99271.88
2023-05-05T03:15:38.812Z,99273.03
2023-05-05T03:18:05.764Z,99270.94
2023-05-05T03:20:32.344Z,99268.19
2023-05-05T03:22:58.826Z,99273.47
2023-05-05T03:25:25.239Z,99276.13
2023-05-05T03:27:51.742Z,99275.38
2023-05-05T03:30:18.168Z,99278.13
2023-05-05T03:32:44.787Z,99272.06
2023-05-05T03:35:14.621Z,99269.53
2023-05-05T03:37:41.091Z,99267.72
2023-05-05T03:40:07.948Z,99274.81
2023-05-05T03:42:34.742Z,99272.44
2023-05-05T03:45:01.209Z,99271.59
2023-05-05T03:47:27.775Z,99276.34
2023-05-05T03:49:54.368Z,99273.84
2023-05-05T03:52:20.928Z,99276.91
2023-05-05T03:54:47.771Z,99279.16
2023-05-05T03:57:14.521Z,99284.81
2023-05-05T03:59:41.494Z,99282.19
2023-05-05T04:02:08.100Z,99288.59
2023-05-05T04:04:34.723Z,99291.81
2023-05-05T04:07:03.553Z,99285.59
2023-05-05T04:09:30.312Z,99292.38
2023-05-05T04:11:56.769Z,99291.81
2023-05-05T04:14:23.519Z,99294.06
2023-05-05T04:16:50.007Z,99297.94
2023-05-05T04:19:16.790Z,99295.00
2023-05-05T04:21:45.594Z,99288.47
2023-05-05T04:24:12.097Z,99289.34
2023-05-05T04:26:38.925Z,99298.81
2023-05-05T04:29:05.425Z,99285.22
2023-05-05T04:31:31.988Z,99302.38
2023-05-05T04:33:59.091Z,99296.50
2023-05-05T04:36:25.637Z,99296.69
2023-05-05T04:38:52.171Z,99307.66
2023-05-05T04:41:19.338Z,99306.84
2023-05-05T04:43:46.250Z,99312.41
2023-05-05T04:46:15.181Z,99314.66
2023-05-05T04:48:41.698Z,99319.66
2023-05-05T04:51:09.442Z,99327.41
2023-05-05T04:53:36.121Z,99332.25
2023-05-05T04:56:02.677Z,99338.09
2023-05-05T04:58:29.103Z,99337.06
2023-05-05T05:00:58.736Z,99343.88
2023-05-05T05:03:25.607Z,99342.28
2023-05-05T05:05:52.502Z,99337.94
2023-05-05T05:08:19.071Z,99340.94
2023-05-05T05:10:45.552Z,99349.44
2023-05-05T05:13:12.862Z,99347.53
2023-05-05T05:15:39.590Z,99342.25
2023-05-05T05:18:06.185Z,99346.03
2023-05-05T05:20:33.313Z,99346.63
2023-05-05T05:23:00.831Z,99360.50
2023-05-05T05:25:27.646Z,99357.28
2023-05-05T05:28:06.180Z,99352.38
2023-05-05T05:30:36.490Z,99362.31
2023-05-05T05:33:03.185Z,99363.88
2023-05-05T05:35:31.914Z,99360.72
2023-05-05T05:38:01.081Z,99363.97
2023-05-05T05:40:27.658Z,99365.31
2023-05-05T05:42:56.555Z,99369.66
2023-05-05T05:45:23.064Z,99366.34
2023-05-05T05:47:49.804Z,99365.91
2023-05-05T05:50:16.601Z,99352.94
2023-05-05T05:52:43.276Z,99352.28
2023-05-05T05:55:09.782Z,99354.31
2023-05-05T05:57:36.468Z,99352.63
2023-05-05T06:00:03.002Z,99354.53
2023-05-05T06:02:29.680Z,99367.25
2023-05-05T06:04:56.347Z,99360.50
2023-05-05T06:07:22.799Z,99367.69
2023-05-05T06:09:49.333Z,99370.22
2023-05-05T06:12:15.817Z,99377.88
2023-05-05T06:14:42.650Z,99369.41
2023-05-05T06:17:09.199Z,99372.91
2023-05-05T06:19:35.706Z,99370.59
2023-05-05T06:22:02.377Z,99373.16
2023-05-05T06:24:28.926Z,99362.75
2023-05-05T06:26:56.431Z,99363.41
2023-05-05T06:29:22.970Z,99358.94
2023-05-05T06:31:50.581Z,99366.91
2023-05-05T06:34:17.126Z,99370.44
2023-05-05T06:36:43.569Z,99364.81
2023-05-05T06:39:10.424Z,99370.41
2023-05-05T06:41:36.862Z,99366.16
2023-05-05T06:44:03.575Z,99365.75
2023-05-05T06:46:30.187Z,99362.19
2023-05-05T06:48:57.051Z,99362.06
2023-05-05T06:51:23.534Z,99374.38
2023-05-05T06:53:49.987Z,99382.13
2023-05-05T06:56:17.066Z,99380.75
2023-05-05T06:58:43.782Z,99379.34
2023-05-05T07:01:10.373Z,99373.63
2023-05-05T07:03:39.280Z,99371.00
2023-05-05T07:06:05.775Z,99375.16
2023-05-05T07:08:32.267Z,99376.53
2023-05-05T07:10:59.969Z,99380.38
2023-05-05T07:13:26.563Z,99385.28
2023-05-05T07:15:52.952Z,99376.03
2023-05-05T07:18:19.362Z,99378.16
2023-05-05T07:20:45.884Z,99382.16
2023-05-05T07:23:14.843Z,99375.69
2023-05-05T07:25:41.343Z,99376.31
2023-05-05T07:28:07.985Z,99373.03
2023-05-05T07:30:34.393Z,99369.25
2023-05-05T07:33:01.003Z,99370.31
2023-05-05T07:35:27.608Z,99364.38
2023-05-05T07:37:54.261Z,99368.75
2023-05-05T07:40:20.790Z,99369.75
2023-05-05T07:42:47.356Z,99365.13
2023-05-05T07:45:16.368Z,99364.25
2023-05-05T07:47:42.940Z,99358.50
2023-05-05T07:50:09.870Z,99366.97
2023-05-05T07:52:46.471Z,99366.97
2023-05-05T07:55:16.549Z,99369.41
2023-05-05T07:57:43.245Z,99371.94
2023-05-05T08:00:10.114Z,99367.56
2023-05-05T08:02:36.837Z,99362.97
2023-05-05T08:05:03.349Z,99367.19
2023-05-05T08:07:30.164Z,99366.94
2023-05-05T08:09:56.859Z,99360.06
2023-05-05T08:12:23.348Z,99361.66
2023-05-05T08:14:49.827Z,99362.34
2023-05-05T08:17:21.682Z,99358.72
2023-05-05T08:19:48.123Z,99367.28
2023-05-05T08:22:14.577Z,99355.84
2023-05-05T08:24:40.975Z,99353.03
2023-05-05T08:27:07.842Z,99353.44
2023-05-05T08:29:41.666Z,99346.66
2023-05-05T08:32:08.246Z,99348.56
2023-05-05T08:34:35.534Z,99350.19
2023-05-05T08:37:02.012Z,99358.50
2023-05-05T08:39:29.493Z,99351.28
2023-05-05T08:41:55.979Z,99349.81
2023-05-05T08:44:24.654Z,99348.34
2023-05-05T08:46:51.249Z,99350.06
2023-05-05T08:49:18.786Z,99352.53
2023-05-05T08:51:45.856Z,99351.31
2023-05-05T08:54:12.577Z,99350.63
2023-05-05T08:56:39.320Z,99342.47
2023-05-05T08:59:06.439Z,99348.16
2023-05-05T09:01:33.431Z,99346.56
2023-05-05T09:03:59.994Z,99345.84
2023-05-05T09:06:26.748Z,99350.00
2023-05-05T09:08:53.204Z,99348.75
2023-05-05T09:11:20.641Z,99343.97
2023-05-05T09:13:47.199Z,99344.19
2023-05-05T09:16:13.673Z,99337.75
2023-05-05T09:18:40.266Z,99345.41
2023-05-05T09:21:08.332Z,99342.25
2023-05-05T09:23:34.896Z,99344.69
2023-05-05T09:26:01.794Z,99346.13
2023-05-05T09:28:28.434Z,99347.72
2023-05-05T09:30:54.919Z,99339.03
2023-05-05T09:33:21.796Z,99339.88
2023-05-05T09:35:52.467Z,99337.31
2023-05-05T09:38:18.968Z,99329.78
2023-05-05T09:40:52.642Z,99329.44
2023-05-05T09:43:19.532Z,99324.03
2023-05-05T09:45:46.420Z,99334.03
2023-05-05T09:48:13.420Z,99335.28
2023-05-05T09:50:40.364Z,99332.50
2023-05-05T09:53:06.827Z,99326.09
2023-05-05T09:55:33.785Z,99329.69
2023-05-05T09:58:00.958Z,99324.63
2023-05-05T10:00:27.633Z,99332.63
2023-05-05T10:02:54.166Z,99329.22
2023-05-05T10:05:20.793Z,99334.56
2023-05-05T10:07:47.443Z,99325.13
2023-05-05T10:10:14.232Z,99325.72
2023-05-05T10:12:40.792Z,99324.38
2023-05-05T10:15:07.259Z,99323.16
2023-05-05T10:17:33.897Z,99318.34
2023-05-05T10:20:00.492Z,99325.34
2023-05-05T10:22:27.381Z,99323.78
2023-05-05T10:24:54.158Z,99317.84
2023-05-05T10:27:20.714Z,99316.13
2023-05-05T10:29:48.360Z,99313.41
2023-05-05T10:32:40.624Z,99309.56
2023-05-05T10:35:01.632Z,99313.47
2023-05-05T10:37:28.154Z,99300.53
2023-05-05T10:39:54.716Z,99298.28
2023-05-05T10:42:21.684Z,99292.69
2023-05-05T10:44:48.496Z,99292.78
2023-05-05T10:47:15.153Z,99287.41
2023-05-05T10:49:41.937Z,99282.53
2023-05-05T10:52:08.484Z,99290.09
2023-05-05T10:54:38.284Z,99284.59
2023-05-05T10:57:06.119Z,99277.13
2023-05-05T10:59:33.843Z,99274.94
2023-05-05T11:02:00.333Z,99275.13
2023-05-05T11:04:26.792Z,99278.88
2023-05-05T11:06:53.479Z,99267.81
2023-05-05T11:09:19.997Z,99267.47
2023-05-05T11:11:46.654Z,99270.38
2023-05-05T11:14:13.117Z,99272.63
2023-05-05T11:16:39.574Z,99257.94
2023-05-05T11:19:06.076Z,99257.91
2023-05-05T11:21:34.829Z,99258.59
2023-05-05T11:24:01.904Z,99248.09
2023-05-05T11:26:28.526Z,99248.97
2023-05-05T11:28:55.049Z,99244.34
2023-05-05T11:31:21.552Z,99240.63
2023-05-05T11:33:48.039Z,99234.16
2023-05-05T11:36:15.217Z,99232.50
2023-05-05T11:38:41.716Z,99237.94
2023-05-05T11:41:08.480Z,99222.34
2023-05-05T11:43:35.060Z,99232.22
2023-05-05T11:46:01.507Z,99237.56
2023-05-05T11:48:28.002Z,99228.28
2023-05-05T11:50:54.398Z,99226.78
2023-05-05T11:53:20.803Z,99214.78
2023-05-05T11:55:49.831Z,99223.81
2023-05-05T11:58:18.415Z,99226.31
2023-05-05T12:00:44.814Z,99219.47
2023-05-05T12:03:11.370Z,99213.69
2023-05-05T12:05:39.931Z,99216.09
2023-05-05T12:08:06.392Z,99213.53
2023-05-05T12:10:33.006Z,99215.50
2023-05-05T12:12:59.444Z,99217.13
2023-05-05T12:15:26.239Z,99212.34
2023-05-05T12:17:52.756Z,99212.88
2023-05-05T12:20:22.446Z,99214.03
2023-05-05T12:22:48.863Z,99207.81
2023-05-05T12:25:15.333Z,99217.66
2023-05-05T12:27:41.747Z,99209.06
2023-05-05T12:30:11.573Z,99214.13
2023-05-05T12:32:38.884Z,99207.50
2023-05-05T12:35:05.678Z,99203.38
2023-05-05T12:37:32.090Z,99198.19
2023-05-05T12:39:58.531Z,99197.59
2023-05-05T12:42:25.306Z,99196.28
2023-05-05T12:44:52.184Z,99199.28
2023-05-05T12:47:18.605Z,99190.78
2023-05-05T12:49:45.403Z,99188.69
2023-05-05T12:52:13.561Z,99182.06
2023-05-05T12:54:39.891Z,99186.81
2023-05-05T12:57:06.591Z,99182.53
2023-05-05T12:59:33.313Z,99177.09
2023-05-05T13:01:59.968Z,99182.47
2023-05-05T13:04:27.341Z,99165.09
2023-05-05T13:06:54.585Z,99156.41
2023-05-05T13:09:21.630Z,99154.44
2023-05-05T13:11:48.311Z,99156.81
2023-05-05T13:14:15.731Z,99157.88
2023-05-05T13:16:42.376Z,99150.16
2023-05-05T13:19:08.777Z,99144.56
2023-05-05T13:21:36.223Z,99141.63
2023-05-05T13:24:18.981Z,99133.28
2023-05-05T13:26:49.347Z,99131.94
2023-05-05T13:29:15.701Z,99124.25
2023-05-05T13:31:42.154Z,99119.13
2023-05-05T13:34:09.656Z,99114.13
2023-05-05T13:36:36.085Z,99118.91
2023-05-05T13:39:02.607Z,99113.81
2023-05-05T13:41:29.172Z,99106.47
2023-05-05T13:43:56.993Z,99105.03
2023-05-05T13:46:23.390Z,99102.72
2023-05-05T13:48:49.809Z,99101.69
2023-05-05T13:51:18.528Z,99094.97
2023-05-05T13:53:45.639Z,99084.03
2023-05-05T13:56:13.122Z,99088.84
2023-05-05T13:58:39.477Z,99087.59
2023-05-05T14:01:05.884Z,99077.53
2023-05-05T14:03:36.135Z,99076.59
2023-05-05T14:06:02.749Z,99070.38
2023-05-05T14:08:29.130Z,99072.06
2023-05-05T14:10:55.803Z,99075.31
2023-05-05T14:13:22.750Z,99069.94
2023-05-05T14:15:49.272Z,99067.63
2023-05-05T14:18:18.780Z,99064.25
2023-05-05T14:20:45.304Z,99069.78
2023-05-05T14:23:11.770Z,99063.94
2023-05-05T14:25:38.179Z,99063.75
2023-05-05T14:28:04.621Z,99065.44
2023-05-05T14:30:31.476Z,99062.44
2023-05-05T14:32:57.963Z,99059.53
2023-05-05T14:35:24.784Z,99056.69
2023-05-05T14:37:51.178Z,99051.81
2023-05-05T14:40:18.686Z,99056.84
2023-05-05T14:42:45.028Z,99056.00
2023-05-05T14:45:12.460Z,99050.44
2023-05-05T14:47:38.961Z,99052.44
2023-05-05T14:50:05.554Z,99054.47
2023-05-05T14:52:31.987Z,99050.38
2023-05-05T14:54:58.536Z,99051.69
2023-05-05T14:57:24.980Z,99053.38
2023-05-05T14:59:51.488Z,99052.06
2023-05-05T15:02:18.276Z,99050.03
2023-05-05T15:04:44.826Z,99051.03
2023-05-05T15:07:11.254Z,99047.63
2023-05-05T15:09:37.707Z,99048.94
2023-05-05T15:12:04.012Z,99039.16
2023-05-05T15:14:30.415Z,99040.16
2023-05-05T15:16:56.809Z,99041.47
2023-05-05T15:19:23.581Z,99039.69
2023-05-05T15:21:50.005Z,99040.34
2023-05-05T15:24:17.444Z,99043.50
2023-05-05T15:26:43.882Z,99049.41
2023-05-05T15:29:10.616Z,99039.94
2023-05-05T15:31:37.145Z,99037.22
2023-05-05T15:34:04.900Z,99050.63
2023-05-05T15:36:31.322Z,99039.00
2023-05-05T15:38:58.404Z,99041.53
2023-05-05T15:41:24.776Z,99041.13
2023-05-05T15:43:51.141Z,99043.81
2023-05-05T15:46:17.923Z,99034.34
2023-05-05T15:48:44.317Z,99041.16
2023-05-05T15:51:10.765Z,99036.59
2023-05-05T15:53:37.248Z,99036.59
2023-05-05T15:56:03.916Z,99027.13
2023-05-05T15:58:31.404Z,99031.31
2023-05-05T16:00:58.191Z,99027.59
2023-05-05T16:03:25.035Z,99032.97
2023-05-05T16:05:51.534Z,99032.44
2023-05-05T16:08:17.988Z,99027.50
2023-05-05T16:10:44.336Z,99028.44
2023-05-05T16:13:11.777Z,99021.25
2023-05-05T16:15:38.306Z,99019.47
2023-05-05T16:18:04.732Z,99023.69
2023-05-05T16:20:31.698Z,99023.69
2023-05-05T16:22:58.084Z,99014.94
2023-05-05T16:25:24.919Z,99012.41
2023-05-05T16:27:53.720Z,99011.75
2023-05-05T16:30:20.041Z,99006.19
2023-05-05T16:32:46.699Z,99006.28
2023-05-05T16:35:13.103Z,99000.97
2023-05-05T16:37:39.604Z,99000.31
2023-05-05T16:40:06.063Z,98998.75
2023-05-05T16:42:33.705Z,98999.78
2023-05-05T16:45:01.425Z,99012.34
2023-05-05T16:47:27.804Z,99005.47
2023-05-05T16:49:54.732Z,99000.44
2023-05-05T16:52:21.157Z,98999.13
2023-05-05T16:54:47.660Z,98995.78
2023-05-05T16:57:14.014Z,99009.00
2023-05-05T16:59:40.839Z,98992.50
2023-05-05T17:02:07.691Z,98994.41
2023-05-05T17:04:35.787Z,99000.34
2023-05-05T17:07:02.177Z,98997.03
2023-05-05T17:09:28.652Z,98995.44
2023-05-05T17:11:55.249Z,98989.78
2023-05-05T17:14:21.627Z,98992.81
2023-05-05T17:16:48.156Z,98990.09
2023-05-05T17:19:14.561Z,98989.78
2023-05-05T17:21:42.101Z,98991.84
2023-05-05T17:24:08.819Z,98992.44
2023-05-05T17:26:46.504Z,98996.97
2023-05-05T17:29:13.169Z,98992.59
2023-05-05T17:31:39.730Z,99001.81
2023-05-05T17:34:06.165Z,99001.00
2023-05-05T17:36:33.044Z,98997.63
2023-05-05T17:38:59.467Z,99000.00
2023-05-05T17:41:25.932Z,98996.66
2023-05-05T17:43:52.504Z,98997.34
2023-05-05T17:46:19.058Z,99002.06
2023-05-05T17:48:46.917Z,99000.22
2023-05-05T17:51:17.334Z,99003.56
2023-05-05T17:53:43.889Z,99005.75
2023-05-05T17:56:10.311Z,99008.63
2023-05-05T17:58:36.825Z,99008.09
2023-05-05T18:01:07.374Z,98998.53
2023-05-05T18:03:33.967Z,99009.63
2023-05-05T18:06:00.522Z,99006.28
2023-05-05T18:08:27.805Z,99004.59
2023-05-05T18:10:55.523Z,99008.63
2023-05-05T18:13:23.217Z,99007.97
2023-05-05T18:15:49.926Z,99011.84
2023-05-05T18:18:16.736Z,99010.84
2023-05-05T18:20:43.419Z,99020.94
2023-05-05T18:23:10.313Z,99020.75
2023-05-05T18:25:37.953Z,99021.56
2023-05-05T18:28:04.812Z,99027.63
2023-05-05T18:30:32.087Z,99025.59
2023-05-05T18:32:59.154Z,99031.69
2023-05-05T18:35:26.252Z,99029.84
2023-05-05T18:37:57.373Z,99042.56
2023-05-05T18:40:24.583Z,99035.50
2023-05-05T18:42:52.403Z,99041.41
2023-05-05T18:45:21.598Z,99033.69
2023-05-05T18:47:51.491Z,99042.75
2023-05-05T18:50:18.937Z,99038.22
2023-05-05T18:52:46.045Z,99041.91
2023-05-05T18:55:15.461Z,99035.19
2023-05-05T18:57:42.511Z,99036.38
2023-05-05T19:00:09.810Z,99038.88
2023-05-05T19:02:37.077Z,99040.06
2023-05-05T19:05:11.368Z,99035.66
2023-05-05T19:07:39.582Z,99045.38
2023-05-05T19:10:12.056Z,99041.34
2023-05-05T19:12:39.181Z,99037.13
2023-05-05T19:15:06.966Z,99038.75
2023-05-05T19:17:35.114Z,99044.50
2023-05-05T19:20:02.300Z,99049.59
2023-05-05T19:22:30.889Z,99046.13
2023-05-05T19:24:58.051Z,99042.94
2023-05-05T19:27:25.790Z,99040.09
2023-05-05T19:29:53.489Z,99035.56
2023-05-05T19:32:21.278Z,99030.50
2023-05-05T19:34:48.722Z,99037.84
2023-05-05T19:37:15.906Z,99033.97
2023-05-05T19:39:43.424Z,99034.06
2023-05-05T19:42:10.764Z,99029.44
2023-05-05T19:44:38.231Z,99030.41
2023-05-05T19:47:05.424Z,99031.28
2023-05-05T19:49:33.782Z,99032.03
2023-05-05T19:52:02.279Z,99036.38
2023-05-05T19:54:30.159Z,99028.34
2023-05-05T19:56:57.440Z,99032.19
2023-05-05T19:59:29.862Z,99032.19
2023-05-05T20:01:57.493Z,99026.66
2023-05-05T20:04:24.810Z,99026.66
2023-05-05T20:06:52.515Z,99019.06
2023-05-05T20:09:19.775Z,99018.94
2023-05-05T20:11:46.902Z,99021.84
2023-05-05T20:14:14.299Z,99017.16
2023-05-05T20:16:41.664Z,99011.44
2023-05-05T20:19:09.719Z,99014.13
2023-05-05T20:21:36.827Z,99011.44
2023-05-05T20:24:06.658Z,99006.38
2023-05-05T20:26:36.033Z,99004.03
2023-05-05T20:29:03.123Z,98998.94
2023-05-05T20:31:30.410Z,99002.09
2023-05-05T20:33:57.869Z,99002.22
2023-05-05T20:36:24.769Z,98988.97
2023-05-05T20:38:53.985Z,98989.81
2023-05-05T20:41:20.461Z,98992.53
2023-05-05T20:43:47.266Z,98994.47
2023-05-05T20:46:14.125Z,98987.91
2023-05-05T20:48:42.940Z,98984.84
2023-05-05T20:51:10.016Z,98990.84
2023-05-05T20:53:37.708Z,98997.88
2023-05-05T20:56:09.302Z,98997.72
2023-05-05T20:58:37.444Z,98993.88
2023-05-05T21:01:03.970Z,98994.72
2023-05-05T21:03:31.319Z,98994.91
2023-05-05T21:05:58.793Z,98990.91
2023-05-05T21:08:26.183Z,98991.59
2023-05-05T21:10:52.667Z,98983.41
2023-05-05T21:13:19.518Z,98990.81
2023-05-05T21:15:46.054Z,98982.34
2023-05-05T21:18:12.650Z,98984.03
2023-05-05T21:20:38.990Z,98983.19
2023-05-05T21:23:05.393Z,98981.78
2023-05-05T21:25:31.985Z,98983.41
2023-05-05T21:27:58.424Z,98981.72
2023-05-05T21:30:24.856Z,98983.56
2023-05-05T21:32:51.303Z,98979.34
2023-05-05T21:35:18.790Z,98978.97
2023-05-05T21:37:45.218Z,98977.59
2023-05-05T21:40:14.057Z,98973.56
2023-05-05T21:42:40.668Z,98975.63
2023-05-05T21:45:07.110Z,98969.69
2023-05-05T21:47:33.924Z,98970.38
2023-05-05T21:50:00.314Z,98966.72
2023-05-05T21:52:26.971Z,98974.75
2023-05-05T21:54:54.348Z,98974.75
2023-05-05T21:57:21.178Z,98977.56
2023-05-05T21:59:47.788Z,98976.84
2023-05-05T22:02:14.127Z,98974.41
2023-05-05T22:04:40.553Z,98963.66
2023-05-05T22:07:07.261Z,98975.44
2023-05-05T22:09:33.602Z,98976.94
2023-05-05T22:11:59.958Z,98984.03
2023-05-05T22:14:26.341Z,98978.75
2023-05-05T22:16:52.772Z,98982.41
2023-05-05T22:19:19.174Z,98979.88
2023-05-05T22:21:45.548Z,98970.59
2023-05-05T22:24:13.411Z,98971.31
2023-05-05T22:26:39.938Z,98974.25
2023-05-05T22:29:06.497Z,98961.34
2023-05-05T22:31:33.209Z,98955.69
2023-05-05T22:33:59.913Z,98958.78
2023-05-05T22:36:27.867Z,98957.94
2023-05-05T22:38:54.610Z,98954.88
2023-05-05T22:41:21.409Z,98947.31
2023-05-05T22:43:47.851Z,98954.13
2023-05-05T22:46:14.264Z,98942.56
2023-05-05T22:48:40.866Z,98946.78
2023-05-05T22:51:09.429Z,98948.75
2023-05-05T22:53:36.048Z,98944.91
2023-05-05T22:56:02.651Z,98947.94
2023-05-05T22:58:29.029Z,98945.41
2023-05-05T23:00:55.489Z,98949.47
2023-05-05T23:03:21.893Z,98946.63
2023-05-05T23:05:50.359Z,98951.72
2023-05-05T23:08:16.752Z,98942.72
2023-05-05T23:10:43.210Z,98943.31
2023-05-05T23:13:09.689Z,98935.41
2023-05-05T23:15:36.394Z,98932.44
2023-05-05T23:18:02.798Z,98937.53
2023-05-05T23:20:30.067Z,98930.91
2023-05-05T23:22:56.419Z,98935.53
2023-05-05T23:25:22.831Z,98928.84
2023-05-05T23:27:49.191Z,98926.63
2023-05-05T23:30:15.789Z,98926.03
2023-05-05T23:32:42.232Z,98921.25
2023-05-05T23:35:09.162Z,98906.59
2023-05-05T23:37:35.739Z,98917.28
2023-05-05T23:40:02.108Z,98903.25
2023-05-05T23:42:28.438Z,98902.25
2023-05-05T23:44:55.122Z,98902.41
2023-05-05T23:47:23.926Z,98901.84
2023-05-05T23:49:50.615Z,98900.16
2023-05-05T23:52:17.331Z,98892.34
2023-05-05T23:54:44.889Z,98890.63
2023-05-05T23:57:11.238Z,98889.88
2023-05-05T23:59:37.968Z,98890.03
